^^
Station Historical Data
Daily Summary for October 17, 2017 Units:  Both    English   Metric
« Previous Day
Next Day »
Daily Weekly Monthly Yearly Custom
  High: Low: Average:
Temperature: TemperatureF °F /  -17.8 °C 52.3 °F /  11.3 °C 73.3 °F /  22.9 °C
Dew Point: DewpointF °F /  -17.8 °C 10.9 °F /  -11.7 °C 16.7 °F /  -8.5 °C
Humidity: Humidity% 5% 13%
Wind Speed: WindSpeedMPHmph /  0km/h - 1.1mph /  1.8km/h
Wind Gust: WindSpeedGustMPHmph /  0km/h - -
Wind- - SSE
Pressure: PressureIn in /  0 hPa 29.69 in /  1005.3 hPa -
Precipitation: 0.00 in /  0 mm    
Historical Graphs
 
 
Tabular Data for October 17, 2017
Time Temperature Dew Point Pressure Wind Wind Speed Wind Gust Humidity Rainfall Rate (Hourly) solar Conditions
TemperatureF °F /  -17.8 °C DewpointF °F /  -17.8 °C PressureInin /  0hPa Calm     Humidity% HourlyPrecipInin /  0mm SolarRadiationWatts/m^2 W/m2 Conditions
00:04 67.8 °F /  19.9 °C 15.1 °F /  -9.4 °C 29.88in /  1011.7hPa Calm   2.0mph /  3.2km/h 13% 0.00in /  0mm 0.0 W/m2
00:09 67.8 °F /  19.9 °C 13.3 °F /  -10.4 °C 29.88in /  1011.7hPa South 0.9mph /  1.4km/h 4.0mph /  6.4km/h 12% 0.00in /  0mm 0.0 W/m2
00:14 68.2 °F /  20.1 °C 15.4 °F /  -9.2 °C 29.88in /  1011.7hPa WSW 0.9mph /  1.4km/h 5.0mph /  8km/h 13% 0.00in /  0mm 0.0 W/m2
00:19 68.4 °F /  20.2 °C 15.6 °F /  -9.1 °C 29.87in /  1011.4hPa SE 4.0mph /  6.4km/h 10.0mph /  16.1km/h 13% 0.00in /  0mm 0.0 W/m2
00:25 68.4 °F /  20.2 °C 15.6 °F /  -9.1 °C 29.87in /  1011.4hPa SSE 2.9mph /  4.7km/h 9.0mph /  14.5km/h 13% 0.00in /  0mm 0.0 W/m2
00:30 68.5 °F /  20.3 °C 13.8 °F /  -10.1 °C 29.87in /  1011.4hPa SE 2.0mph /  3.2km/h 10.0mph /  16.1km/h 12% 0.00in /  0mm 0.0 W/m2
00:35 68.5 °F /  20.3 °C 13.8 °F /  -10.1 °C 29.87in /  1011.4hPa SSW 0.9mph /  1.4km/h 4.0mph /  6.4km/h 12% 0.00in /  0mm 0.0 W/m2
00:40 68.4 °F /  20.2 °C 15.6 °F /  -9.1 °C 29.86in /  1011.1hPa SE 0.9mph /  1.4km/h 10.0mph /  16.1km/h 13% 0.00in /  0mm 0.0 W/m2
00:45 68.4 °F /  20.2 °C 15.6 °F /  -9.1 °C 29.86in /  1011.1hPa SSE 2.9mph /  4.7km/h 8.0mph /  12.9km/h 13% 0.00in /  0mm 0.0 W/m2
00:50 68.4 °F /  20.2 °C 15.6 °F /  -9.1 °C 29.86in /  1011.1hPa SE 2.0mph /  3.2km/h 13.0mph /  20.9km/h 13% 0.00in /  0mm 0.0 W/m2
00:55 68.4 °F /  20.2 °C 13.8 °F /  -10.1 °C 29.86in /  1011.1hPa SSE 6.0mph /  9.7km/h 9.0mph /  14.5km/h 12% 0.00in /  0mm 0.0 W/m2
01:00 68.2 °F /  20.1 °C 13.6 °F /  -10.2 °C 29.86in /  1011.1hPa ESE 4.9mph /  7.9km/h 9.0mph /  14.5km/h 12% 0.00in /  0mm 0.0 W/m2
01:05 68.0 °F /  20 °C 13.5 °F /  -10.3 °C 29.85in /  1010.7hPa SE 2.0mph /  3.2km/h 9.0mph /  14.5km/h 12% 0.00in /  0mm 0.0 W/m2
01:08 68.0 °F /  20 °C 13.5 °F /  -10.3 °C 29.85in /  1010.7hPa ESE 2.9mph /  4.7km/h 7.0mph /  11.3km/h 12% 0.00in /  0mm 0.0 W/m2
01:13 67.8 °F /  19.9 °C 13.3 °F /  -10.4 °C 29.85in /  1010.7hPa Calm   4.0mph /  6.4km/h 12% 0.00in /  0mm 0.0 W/m2
01:18 67.6 °F /  19.8 °C 13.3 °F /  -10.4 °C 29.85in /  1010.7hPa South 11.0mph /  17.7km/h 11.0mph /  17.7km/h 12% 0.00in /  0mm 0.0 W/m2
01:24 67.6 °F /  19.8 °C 13.3 °F /  -10.4 °C 29.85in /  1010.7hPa Calm   10.0mph /  16.1km/h 12% 0.00in /  0mm 0.0 W/m2
01:30 67.5 °F /  19.7 °C 13.1 °F /  -10.5 °C 29.84in /  1010.4hPa Calm   5.0mph /  8km/h 12% 0.00in /  0mm 0.0 W/m2
01:35 67.3 °F /  19.6 °C 14.7 °F /  -9.6 °C 29.84in /  1010.4hPa Calm   11.0mph /  17.7km/h 13% 0.00in /  0mm 0.0 W/m2
01:40 66.9 °F /  19.4 °C 14.5 °F /  -9.7 °C 29.84in /  1010.4hPa South 6.0mph /  9.7km/h 6.0mph /  9.7km/h 13% 0.00in /  0mm 0.0 W/m2
01:45 66.7 °F /  19.3 °C 12.6 °F /  -10.8 °C 29.83in /  1010hPa SSE 2.9mph /  4.7km/h 8.0mph /  12.9km/h 12% 0.00in /  0mm 0.0 W/m2
01:51 66.6 °F /  19.2 °C 12.4 °F /  -10.9 °C 29.83in /  1010hPa SSW 2.0mph /  3.2km/h 4.0mph /  6.4km/h 12% 0.00in /  0mm 0.0 W/m2
01:56 66.6 °F /  19.2 °C 12.4 °F /  -10.9 °C 29.83in /  1010hPa Calm   3.0mph /  4.8km/h 12% 0.00in /  0mm 0.0 W/m2
02:01 66.6 °F /  19.2 °C 12.4 °F /  -10.9 °C 29.83in /  1010hPa SE 0.9mph /  1.4km/h 3.0mph /  4.8km/h 12% 0.00in /  0mm 0.0 W/m2
02:07 66.6 °F /  19.2 °C 12.4 °F /  -10.9 °C 29.83in /  1010hPa Calm   4.0mph /  6.4km/h 12% 0.00in /  0mm 0.0 W/m2
02:12 66.2 °F /  19 °C 12.0 °F /  -11.1 °C 29.83in /  1010hPa Calm   4.0mph /  6.4km/h 12% 0.00in /  0mm 0.0 W/m2
02:17 66.0 °F /  18.9 °C 12.0 °F /  -11.1 °C 29.83in /  1010hPa Calm   1.0mph /  1.6km/h 12% 0.00in /  0mm 0.0 W/m2
02:22 65.7 °F /  18.7 °C 13.5 °F /  -10.3 °C 29.82in /  1009.7hPa Calm     13% 0.00in /  0mm 0.0 W/m2
02:27 65.5 °F /  18.6 °C 13.3 °F /  -10.4 °C 29.82in /  1009.7hPa Calm     13% 0.00in /  0mm 0.0 W/m2
02:32 64.9 °F /  18.3 °C 12.9 °F /  -10.6 °C 29.82in /  1009.7hPa Calm     13% 0.00in /  0mm 0.0 W/m2
02:37 64.4 °F /  18 °C 12.4 °F /  -10.9 °C 29.82in /  1009.7hPa Calm     13% 0.00in /  0mm 0.0 W/m2
02:43 63.9 °F /  17.7 °C 12.0 °F /  -11.1 °C 29.82in /  1009.7hPa Calm     13% 0.00in /  0mm 0.0 W/m2
02:48 63.5 °F /  17.5 °C 13.5 °F /  -10.3 °C 29.82in /  1009.7hPa Calm     14% 0.00in /  0mm 0.0 W/m2
02:53 63.1 °F /  17.3 °C 13.1 °F /  -10.5 °C 29.81in /  1009.4hPa Calm     14% 0.00in /  0mm 0.0 W/m2
02:58 62.6 °F /  17 °C 12.7 °F /  -10.7 °C 29.81in /  1009.4hPa Calm     14% 0.00in /  0mm 0.0 W/m2
03:03 62.1 °F /  16.7 °C 12.2 °F /  -11 °C 29.81in /  1009.4hPa Calm     14% 0.00in /  0mm 0.0 W/m2
03:08 61.5 °F /  16.4 °C 13.5 °F /  -10.3 °C 29.81in /  1009.4hPa Calm     15% 0.00in /  0mm 0.0 W/m2
03:13 61.0 °F /  16.1 °C 12.9 °F /  -10.6 °C 29.80in /  1009hPa Calm     15% 0.00in /  0mm 0.0 W/m2
03:18 60.4 °F /  15.8 °C 12.6 °F /  -10.8 °C 29.80in /  1009hPa Calm     15% 0.00in /  0mm 0.0 W/m2
03:24 60.1 °F /  15.6 °C 13.6 °F /  -10.2 °C 29.80in /  1009hPa Calm     16% 0.00in /  0mm 0.0 W/m2
03:29 59.5 °F /  15.3 °C 13.3 °F /  -10.4 °C 29.80in /  1009hPa Calm     16% 0.00in /  0mm 0.0 W/m2
03:34 59.2 °F /  15.1 °C 12.9 °F /  -10.6 °C 29.80in /  1009hPa Calm     16% 0.00in /  0mm 0.0 W/m2
03:39 58.6 °F /  14.8 °C 12.6 °F /  -10.8 °C 29.80in /  1009hPa Calm     16% 0.00in /  0mm 0.0 W/m2
03:44 58.5 °F /  14.7 °C 12.4 °F /  -10.9 °C 29.80in /  1009hPa Calm     16% 0.00in /  0mm 0.0 W/m2
03:49 58.1 °F /  14.5 °C 13.5 °F /  -10.3 °C 29.80in /  1009hPa Calm     17% 0.00in /  0mm 0.0 W/m2
03:54 57.9 °F /  14.4 °C 13.3 °F /  -10.4 °C 29.80in /  1009hPa Calm     17% 0.00in /  0mm 0.0 W/m2
04:00 57.6 °F /  14.2 °C 13.1 °F /  -10.5 °C 29.80in /  1009hPa Calm     17% 0.00in /  0mm 0.0 W/m2
04:05 57.6 °F /  14.2 °C 13.1 °F /  -10.5 °C 29.80in /  1009hPa Calm     17% 0.00in /  0mm 0.0 W/m2
04:10 57.4 °F /  14.1 °C 14.2 °F /  -9.9 °C 29.80in /  1009hPa Calm     18% 0.00in /  0mm 0.0 W/m2
04:15 57.0 °F /  13.9 °C 14.0 °F /  -10 °C 29.80in /  1009hPa Calm     18% 0.00in /  0mm 0.0 W/m2
04:20 56.8 °F /  13.8 °C 13.8 °F /  -10.1 °C 29.80in /  1009hPa Calm     18% 0.00in /  0mm 0.0 W/m2
04:25 56.7 °F /  13.7 °C 13.6 °F /  -10.2 °C 29.80in /  1009hPa Calm     18% 0.00in /  0mm 0.0 W/m2
04:30 56.5 °F /  13.6 °C 13.5 °F /  -10.3 °C 29.80in /  1009hPa Calm     18% 0.00in /  0mm 0.0 W/m2
04:35 56.3 °F /  13.5 °C 13.3 °F /  -10.4 °C 29.80in /  1009hPa Calm   1.0mph /  1.6km/h 18% 0.00in /  0mm 0.0 W/m2
04:41 56.1 °F /  13.4 °C 13.1 °F /  -10.5 °C 29.80in /  1009hPa Calm     18% 0.00in /  0mm 0.0 W/m2
04:46 55.9 °F /  13.3 °C 14.2 °F /  -9.9 °C 29.80in /  1009hPa Calm   4.0mph /  6.4km/h 19% 0.00in /  0mm 0.0 W/m2
04:52 55.8 °F /  13.2 °C 14.2 °F /  -9.9 °C 29.80in /  1009hPa Calm     19% 0.00in /  0mm 0.0 W/m2
04:57 55.8 °F /  13.2 °C 14.2 °F /  -9.9 °C 29.80in /  1009hPa Calm     19% 0.00in /  0mm 0.0 W/m2
05:02 55.6 °F /  13.1 °C 14.0 °F /  -10 °C 29.81in /  1009.4hPa Calm     19% 0.00in /  0mm 0.0 W/m2
05:08 55.4 °F /  13 °C 14.9 °F /  -9.5 °C 29.81in /  1009.4hPa Calm     20% 0.00in /  0mm 0.0 W/m2
05:19 55.0 °F /  12.8 °C 15.8 °F /  -9 °C 29.81in /  1009.4hPa Calm     21% 0.00in /  0mm 0.0 W/m2
05:30 54.7 °F /  12.6 °C 15.4 °F /  -9.2 °C 29.81in /  1009.4hPa Calm     21% 0.00in /  0mm 0.0 W/m2
05:35 54.7 °F /  12.6 °C 15.4 °F /  -9.2 °C 29.82in /  1009.7hPa Calm     21% 0.00in /  0mm 0.0 W/m2
05:37 54.5 °F /  12.5 °C 15.3 °F /  -9.3 °C 29.82in /  1009.7hPa Calm     21% 0.00in /  0mm 0.0 W/m2
05:42 54.3 °F /  12.4 °C 16.3 °F /  -8.7 °C 29.82in /  1009.7hPa Calm     22% 0.00in /  0mm 0.0 W/m2
05:46 54.3 °F /  12.4 °C 15.3 °F /  -9.3 °C 29.82in /  1009.7hPa Calm     21% 0.00in /  0mm 0.0 W/m2
05:51 54.1 °F /  12.3 °C 16.2 °F /  -8.8 °C 29.82in /  1009.7hPa Calm     22% 0.00in /  0mm 0.0 W/m2
05:57 54.0 °F /  12.2 °C 16.0 °F /  -8.9 °C 29.82in /  1009.7hPa Calm     22% 0.00in /  0mm 0.0 W/m2
06:00 54.0 °F /  12.2 °C 16.0 °F /  -8.9 °C 29.82in /  1009.7hPa Calm     22% 0.00in /  0mm 0.0 W/m2
06:05 53.8 °F /  12.1 °C 14.7 °F /  -9.6 °C 29.82in /  1009.7hPa Calm     21% 0.00in /  0mm 0.0 W/m2
06:10 53.4 °F /  11.9 °C 15.4 °F /  -9.2 °C 29.83in /  1010hPa Calm     22% 0.00in /  0mm 0.0 W/m2
06:15 53.2 °F /  11.8 °C 16.3 °F /  -8.7 °C 29.83in /  1010hPa Calm     23% 0.00in /  0mm 0.0 W/m2
06:20 53.1 °F /  11.7 °C 16.2 °F /  -8.8 °C 29.83in /  1010hPa Calm     23% 0.00in /  0mm 0.0 W/m2
06:25 52.9 °F /  11.6 °C 17.1 °F /  -8.3 °C 29.83in /  1010hPa Calm     24% 0.00in /  0mm 5.0 W/m2
06:31 52.5 °F /  11.4 °C 15.8 °F /  -9 °C 29.83in /  1010hPa Calm     23% 0.00in /  0mm 7.0 W/m2
06:36 52.3 °F /  11.3 °C 16.5 °F /  -8.6 °C 29.83in /  1010hPa Calm     24% 0.00in /  0mm 9.0 W/m2
06:41 52.3 °F /  11.3 °C 15.6 °F /  -9.1 °C 29.84in /  1010.4hPa Calm     23% 0.00in /  0mm 11.0 W/m2
06:47 52.3 °F /  11.3 °C 15.6 °F /  -9.1 °C 29.84in /  1010.4hPa Calm     23% 0.00in /  0mm 12.0 W/m2
06:52 52.3 °F /  11.3 °C 16.5 °F /  -8.6 °C 29.84in /  1010.4hPa Calm     24% 0.00in /  0mm 14.0 W/m2
06:57 52.3 °F /  11.3 °C 18.5 °F /  -7.5 °C 29.84in /  1010.4hPa Calm     26% 0.00in /  0mm 16.0 W/m2
07:03 52.5 °F /  11.4 °C 18.7 °F /  -7.4 °C 29.84in /  1010.4hPa Calm     26% 0.00in /  0mm 16.0 W/m2
07:08 52.5 °F /  11.4 °C 16.7 °F /  -8.5 °C 29.84in /  1010.4hPa Calm     24% 0.00in /  0mm 18.0 W/m2
07:13 53.1 °F /  11.7 °C 17.2 °F /  -8.2 °C 29.84in /  1010.4hPa Calm     24% 0.00in /  0mm 18.0 W/m2
07:19 53.4 °F /  11.9 °C 17.6 °F /  -8 °C 29.85in /  1010.7hPa Calm   2.0mph /  3.2km/h 24% 0.00in /  0mm 21.0 W/m2
07:24 54.5 °F /  12.5 °C 16.3 °F /  -8.7 °C 29.85in /  1010.7hPa Calm     22% 0.00in /  0mm 26.0 W/m2
07:29 55.4 °F /  13 °C 16.2 °F /  -8.8 °C 29.85in /  1010.7hPa NE 0.9mph /  1.4km/h 1.0mph /  1.6km/h 21% 0.00in /  0mm 21.0 W/m2
07:35 56.5 °F /  13.6 °C 15.8 °F /  -9 °C 29.84in /  1010.4hPa Calm     20% 0.00in /  0mm 23.0 W/m2
07:40 57.4 °F /  14.1 °C 15.4 °F /  -9.2 °C 29.85in /  1010.7hPa NNE 0.9mph /  1.4km/h 1.0mph /  1.6km/h 19% 0.00in /  0mm 23.0 W/m2
07:45 58.1 °F /  14.5 °C 16.0 °F /  -8.9 °C 29.84in /  1010.4hPa Calm     19% 0.00in /  0mm 25.0 W/m2
07:51 58.8 °F /  14.9 °C 15.4 °F /  -9.2 °C 29.84in /  1010.4hPa Calm     18% 0.00in /  0mm 26.0 W/m2
07:57 59.5 °F /  15.3 °C 16.0 °F /  -8.9 °C 29.85in /  1010.7hPa Calm   1.0mph /  1.6km/h 18% 0.00in /  0mm 26.0 W/m2
08:02 60.3 °F /  15.7 °C 16.5 °F /  -8.6 °C 29.85in /  1010.7hPa Calm   2.0mph /  3.2km/h 18% 0.00in /  0mm 26.0 W/m2
08:07 61.0 °F /  16.1 °C 17.2 °F /  -8.2 °C 29.84in /  1010.4hPa Calm   1.0mph /  1.6km/h 18% 0.00in /  0mm 26.0 W/m2
08:12 61.7 °F /  16.5 °C 16.3 °F /  -8.7 °C 29.85in /  1010.7hPa Calm   2.0mph /  3.2km/h 17% 0.00in /  0mm 28.0 W/m2
08:17 62.4 °F /  16.9 °C 15.6 °F /  -9.1 °C 29.85in /  1010.7hPa Calm     16% 0.00in /  0mm 32.0 W/m2
08:23 63.1 °F /  17.3 °C 16.2 °F /  -8.8 °C 29.85in /  1010.7hPa Calm     16% 0.00in /  0mm 98.0 W/m2
08:28 63.9 °F /  17.7 °C 16.7 °F /  -8.5 °C 29.84in /  1010.4hPa Calm     16% 0.00in /  0mm 492.0 W/m2
08:33 64.6 °F /  18.1 °C 15.8 °F /  -9 °C 29.84in /  1010.4hPa Calm   1.0mph /  1.6km/h 15% 0.00in /  0mm 517.0 W/m2
08:39 66.0 °F /  18.9 °C 17.1 °F /  -8.3 °C 29.84in /  1010.4hPa Calm   2.0mph /  3.2km/h 15% 0.00in /  0mm 540.0 W/m2
08:44 67.3 °F /  19.6 °C 16.5 °F /  -8.6 °C 29.84in /  1010.4hPa Calm   1.0mph /  1.6km/h 14% 0.00in /  0mm 557.0 W/m2
08:49 68.7 °F /  20.4 °C 17.6 °F /  -8 °C 29.84in /  1010.4hPa East 0.9mph /  1.4km/h 3.0mph /  4.8km/h 14% 0.00in /  0mm 578.0 W/m2
08:55 70.3 °F /  21.3 °C 17.2 °F /  -8.2 °C 29.84in /  1010.4hPa ENE 2.0mph /  3.2km/h 4.0mph /  6.4km/h 13% 0.00in /  0mm 601.0 W/m2
09:00 71.2 °F /  21.8 °C 17.8 °F /  -7.9 °C 29.84in /  1010.4hPa NE 2.0mph /  3.2km/h 6.0mph /  9.7km/h 13% 0.00in /  0mm 619.0 W/m2
09:05 72.1 °F /  22.3 °C 16.7 °F /  -8.5 °C 29.84in /  1010.4hPa Calm   6.0mph /  9.7km/h 12% 0.00in /  0mm 633.0 W/m2
09:11 73.0 °F /  22.8 °C 17.4 °F /  -8.1 °C 29.84in /  1010.4hPa NE 4.0mph /  6.4km/h 7.0mph /  11.3km/h 12% 0.00in /  0mm 652.0 W/m2
09:16 73.6 °F /  23.1 °C 15.8 °F /  -9 °C 29.84in /  1010.4hPa NE 0.9mph /  1.4km/h 9.0mph /  14.5km/h 11% 0.00in /  0mm 671.0 W/m2
09:21 73.8 °F /  23.2 °C 18.0 °F /  -7.8 °C 29.84in /  1010.4hPa ESE 2.0mph /  3.2km/h 6.0mph /  9.7km/h 12% 0.00in /  0mm 687.0 W/m2
09:27 74.1 °F /  23.4 °C 16.2 °F /  -8.8 °C 29.84in /  1010.4hPa NNE 2.0mph /  3.2km/h 6.0mph /  9.7km/h 11% 0.00in /  0mm 708.0 W/m2
09:32 74.7 °F /  23.7 °C 16.7 °F /  -8.5 °C 29.84in /  1010.4hPa NE 0.9mph /  1.4km/h 5.0mph /  8km/h 11% 0.00in /  0mm 726.0 W/m2
09:37 75.2 °F /  24 °C 17.1 °F /  -8.3 °C 29.84in /  1010.4hPa NNE 2.0mph /  3.2km/h 6.0mph /  9.7km/h 11% 0.00in /  0mm 742.0 W/m2
09:42 75.4 °F /  24.1 °C 17.2 °F /  -8.2 °C 29.84in /  1010.4hPa Calm   4.0mph /  6.4km/h 11% 0.00in /  0mm 758.0 W/m2
09:47 75.7 °F /  24.3 °C 17.4 °F /  -8.1 °C 29.84in /  1010.4hPa NE 0.9mph /  1.4km/h 5.0mph /  8km/h 11% 0.00in /  0mm 773.0 W/m2
09:52 76.3 °F /  24.6 °C 15.6 °F /  -9.1 °C 29.83in /  1010hPa North 2.0mph /  3.2km/h 7.0mph /  11.3km/h 10% 0.00in /  0mm 786.0 W/m2
09:57 76.5 °F /  24.7 °C 15.8 °F /  -9 °C 29.83in /  1010hPa Calm   4.0mph /  6.4km/h 10% 0.00in /  0mm 802.0 W/m2
10:02 76.8 °F /  24.9 °C 16.2 °F /  -8.8 °C 29.83in /  1010hPa NE 0.9mph /  1.4km/h 3.0mph /  4.8km/h 10% 0.00in /  0mm 817.0 W/m2
10:07 77.2 °F /  25.1 °C 16.3 °F /  -8.7 °C 29.83in /  1010hPa Calm   3.0mph /  4.8km/h 10% 0.00in /  0mm 831.0 W/m2
10:12 77.5 °F /  25.3 °C 16.7 °F /  -8.5 °C 29.83in /  1010hPa Calm   1.0mph /  1.6km/h 10% 0.00in /  0mm 844.0 W/m2
10:17 78.3 °F /  25.7 °C 17.2 °F /  -8.2 °C 29.83in /  1010hPa ENE 2.0mph /  3.2km/h 2.0mph /  3.2km/h 10% 0.00in /  0mm 856.0 W/m2
10:22 78.6 °F /  25.9 °C 17.4 °F /  -8.1 °C 29.83in /  1010hPa Calm   2.0mph /  3.2km/h 10% 0.00in /  0mm 870.0 W/m2
10:28 79.3 °F /  26.3 °C 18.0 °F /  -7.8 °C 29.83in /  1010hPa NNW 0.9mph /  1.4km/h 3.0mph /  4.8km/h 10% 0.00in /  0mm 884.0 W/m2
10:33 79.7 °F /  26.5 °C 18.3 °F /  -7.6 °C 29.82in /  1009.7hPa Calm   5.0mph /  8km/h 10% 0.00in /  0mm 895.0 W/m2
10:38 79.9 °F /  26.6 °C 18.5 °F /  -7.5 °C 29.82in /  1009.7hPa West 2.9mph /  4.7km/h 3.0mph /  4.8km/h 10% 0.00in /  0mm 905.0 W/m2
10:43 79.9 °F /  26.6 °C 18.5 °F /  -7.5 °C 29.82in /  1009.7hPa North 0.9mph /  1.4km/h 2.0mph /  3.2km/h 10% 0.00in /  0mm 912.0 W/m2
10:48 80.4 °F /  26.9 °C 18.9 °F /  -7.3 °C 29.82in /  1009.7hPa Calm   5.0mph /  8km/h 10% 0.00in /  0mm 928.0 W/m2
10:53 81.0 °F /  27.2 °C 19.2 °F /  -7.1 °C 29.81in /  1009.4hPa Calm   4.0mph /  6.4km/h 10% 0.00in /  0mm 935.0 W/m2
10:58 81.7 °F /  27.6 °C 19.8 °F /  -6.8 °C 29.81in /  1009.4hPa SE 4.9mph /  7.9km/h 6.0mph /  9.7km/h 10% 0.00in /  0mm 947.0 W/m2
11:03 81.9 °F /  27.7 °C 17.4 °F /  -8.1 °C 29.81in /  1009.4hPa NE 0.9mph /  1.4km/h 3.0mph /  4.8km/h 9% 0.00in /  0mm 954.0 W/m2
11:08 82.2 °F /  27.9 °C 17.8 °F /  -7.9 °C 29.81in /  1009.4hPa ENE 0.9mph /  1.4km/h 5.0mph /  8km/h 9% 0.00in /  0mm 963.0 W/m2
11:14 82.4 °F /  28 °C 18.0 °F /  -7.8 °C 29.81in /  1009.4hPa Calm   5.0mph /  8km/h 9% 0.00in /  0mm 972.0 W/m2
11:20 83.1 °F /  28.4 °C 18.5 °F /  -7.5 °C 29.80in /  1009hPa NW 2.0mph /  3.2km/h 6.0mph /  9.7km/h 9% 0.00in /  0mm 979.0 W/m2
11:25 83.5 °F /  28.6 °C 18.7 °F /  -7.4 °C 29.80in /  1009hPa NE 2.9mph /  4.7km/h 5.0mph /  8km/h 9% 0.00in /  0mm 988.0 W/m2
11:30 83.7 °F /  28.7 °C 18.9 °F /  -7.3 °C 29.80in /  1009hPa Calm   1.0mph /  1.6km/h 9% 0.00in /  0mm 995.0 W/m2
11:35 84.0 °F /  28.9 °C 19.0 °F /  -7.2 °C 29.80in /  1009hPa Calm   5.0mph /  8km/h 9% 0.00in /  0mm 998.0 W/m2
11:40 84.7 °F /  29.3 °C 19.6 °F /  -6.9 °C 29.80in /  1009hPa SE 2.0mph /  3.2km/h 8.0mph /  12.9km/h 9% 0.00in /  0mm 1002.0 W/m2
11:45 84.4 °F /  29.1 °C 19.4 °F /  -7 °C 29.80in /  1009hPa SW 4.9mph /  7.9km/h 7.0mph /  11.3km/h 9% 0.00in /  0mm 1009.0 W/m2
11:50 83.3 °F /  28.5 °C 21.0 °F /  -6.1 °C 29.80in /  1009hPa SSW 8.1mph /  13km/h 8.1mph /  13km/h 10% 0.00in /  0mm 1013.0 W/m2
11:55 83.5 °F /  28.6 °C 18.7 °F /  -7.4 °C 29.79in /  1008.7hPa SSE 2.0mph /  3.2km/h 7.0mph /  11.3km/h 9% 0.00in /  0mm 1013.0 W/m2
12:00 83.8 °F /  28.8 °C 21.4 °F /  -5.9 °C 29.79in /  1008.7hPa West 0.9mph /  1.4km/h 6.0mph /  9.7km/h 10% 0.00in /  0mm 1011.0 W/m2
12:05 83.7 °F /  28.7 °C 18.9 °F /  -7.3 °C 29.79in /  1008.7hPa Calm   4.0mph /  6.4km/h 9% 0.00in /  0mm 1021.0 W/m2
12:10 83.5 °F /  28.6 °C 18.7 °F /  -7.4 °C 29.79in /  1008.7hPa WSW 2.0mph /  3.2km/h 7.0mph /  11.3km/h 9% 0.00in /  0mm 1021.0 W/m2
12:16 84.0 °F /  28.9 °C 19.0 °F /  -7.2 °C 29.79in /  1008.7hPa Calm   6.0mph /  9.7km/h 9% 0.00in /  0mm 1028.0 W/m2
12:21 84.4 °F /  29.1 °C 19.4 °F /  -7 °C 29.79in /  1008.7hPa SSW 2.9mph /  4.7km/h 3.0mph /  4.8km/h 9% 0.00in /  0mm 1027.0 W/m2
12:26 84.4 °F /  29.1 °C 19.4 °F /  -7 °C 29.78in /  1008.4hPa WSW 2.0mph /  3.2km/h 7.0mph /  11.3km/h 9% 0.00in /  0mm 1030.0 W/m2
12:31 84.7 °F /  29.3 °C 19.6 °F /  -6.9 °C 29.78in /  1008.4hPa North 2.0mph /  3.2km/h 5.0mph /  8km/h 9% 0.00in /  0mm 1030.0 W/m2
12:36 84.9 °F /  29.4 °C 19.8 °F /  -6.8 °C 29.78in /  1008.4hPa NNE 0.9mph /  1.4km/h 4.0mph /  6.4km/h 9% 0.00in /  0mm 1030.0 W/m2
12:41 85.5 °F /  29.7 °C 17.4 °F /  -8.1 °C 29.78in /  1008.4hPa NNW 2.0mph /  3.2km/h 5.0mph /  8km/h 8% 0.00in /  0mm 1028.0 W/m2
12:46 85.8 °F /  29.9 °C 17.8 °F /  -7.9 °C 29.78in /  1008.4hPa West 4.9mph /  7.9km/h 6.0mph /  9.7km/h 8% 0.00in /  0mm 1030.0 W/m2
12:51 85.8 °F /  29.9 °C 17.8 °F /  -7.9 °C 29.77in /  1008hPa Calm   6.0mph /  9.7km/h 8% 0.00in /  0mm 1027.0 W/m2
12:56 85.5 °F /  29.7 °C 17.4 °F /  -8.1 °C 29.77in /  1008hPa SW 0.9mph /  1.4km/h 5.0mph /  8km/h 8% 0.00in /  0mm 1027.0 W/m2
13:02 86.0 °F /  30 °C 17.8 °F /  -7.9 °C 29.76in /  1007.7hPa NNW 4.0mph /  6.4km/h 4.0mph /  6.4km/h 8% 0.00in /  0mm 1021.0 W/m2
13:07 86.5 °F /  30.3 °C 18.3 °F /  -7.6 °C 29.76in /  1007.7hPa Calm   5.0mph /  8km/h 8% 0.00in /  0mm 1016.0 W/m2
13:13 86.7 °F /  30.4 °C 15.3 °F /  -9.3 °C 29.76in /  1007.7hPa North 2.9mph /  4.7km/h 7.0mph /  11.3km/h 7% 0.00in /  0mm 1013.0 W/m2
13:18 87.3 °F /  30.7 °C 15.6 °F /  -9.1 °C 29.76in /  1007.7hPa Calm   8.0mph /  12.9km/h 7% 0.00in /  0mm 1005.0 W/m2
13:23 87.6 °F /  30.9 °C 16.0 °F /  -8.9 °C 29.75in /  1007.3hPa SE 0.9mph /  1.4km/h 3.0mph /  4.8km/h 7% 0.00in /  0mm 1005.0 W/m2
13:28 88.2 °F /  31.2 °C 16.3 °F /  -8.7 °C 29.75in /  1007.3hPa Calm   2.0mph /  3.2km/h 7% 0.00in /  0mm 1000.0 W/m2
13:33 88.7 °F /  31.5 °C 13.3 °F /  -10.4 °C 29.75in /  1007.3hPa SSW 2.0mph /  3.2km/h 4.0mph /  6.4km/h 6% 0.00in /  0mm 988.0 W/m2
13:38 88.7 °F /  31.5 °C 13.3 °F /  -10.4 °C 29.75in /  1007.3hPa SSW 0.9mph /  1.4km/h 4.0mph /  6.4km/h 6% 0.00in /  0mm 981.0 W/m2
13:44 87.6 °F /  30.9 °C 16.0 °F /  -8.9 °C 29.74in /  1007hPa Calm   3.0mph /  4.8km/h 7% 0.00in /  0mm 974.0 W/m2
13:49 88.3 °F /  31.3 °C 12.9 °F /  -10.6 °C 29.74in /  1007hPa NNE 0.9mph /  1.4km/h 4.0mph /  6.4km/h 6% 0.00in /  0mm 963.0 W/m2
13:54 89.1 °F /  31.7 °C 13.5 °F /  -10.3 °C 29.74in /  1007hPa Calm   5.0mph /  8km/h 6% 0.00in /  0mm 954.0 W/m2
13:59 89.6 °F /  32 °C 13.8 °F /  -10.1 °C 29.74in /  1007hPa Calm   8.0mph /  12.9km/h 6% 0.00in /  0mm 949.0 W/m2
14:05 90.1 °F /  32.3 °C 14.2 °F /  -9.9 °C 29.74in /  1007hPa NNW 4.9mph /  7.9km/h 9.0mph /  14.5km/h 6% 0.00in /  0mm 937.0 W/m2
14:10 90.7 °F /  32.6 °C 14.7 °F /  -9.6 °C 29.73in /  1006.7hPa North 0.9mph /  1.4km/h 6.0mph /  9.7km/h 6% 0.00in /  0mm 926.0 W/m2
14:15 91.2 °F /  32.9 °C 15.1 °F /  -9.4 °C 29.73in /  1006.7hPa SW 0.9mph /  1.4km/h 8.0mph /  12.9km/h 6% 0.00in /  0mm 919.0 W/m2
14:20 91.2 °F /  32.9 °C 10.9 °F /  -11.7 °C 29.73in /  1006.7hPa Calm   3.0mph /  4.8km/h 5% 0.00in /  0mm 905.0 W/m2
14:26 91.2 °F /  32.9 °C 15.1 °F /  -9.4 °C 29.73in /  1006.7hPa West 2.9mph /  4.7km/h 7.0mph /  11.3km/h 6% 0.00in /  0mm 891.0 W/m2
14:31 91.2 °F /  32.9 °C 15.1 °F /  -9.4 °C 29.73in /  1006.7hPa Calm   3.0mph /  4.8km/h 6% 0.00in /  0mm 882.0 W/m2
14:36 91.6 °F /  33.1 °C 15.3 °F /  -9.3 °C 29.72in /  1006.3hPa SE 2.0mph /  3.2km/h 5.0mph /  8km/h 6% 0.00in /  0mm 872.0 W/m2
14:41 91.9 °F /  33.3 °C 11.5 °F /  -11.4 °C 29.72in /  1006.3hPa ENE 4.0mph /  6.4km/h 6.0mph /  9.7km/h 5% 0.00in /  0mm 856.0 W/m2
14:47 92.1 °F /  33.4 °C 15.6 °F /  -9.1 °C 29.72in /  1006.3hPa NNE 0.9mph /  1.4km/h 3.0mph /  4.8km/h 6% 0.00in /  0mm 840.0 W/m2
14:52 91.9 °F /  33.3 °C 11.5 °F /  -11.4 °C 29.72in /  1006.3hPa Calm   2.0mph /  3.2km/h 5% 0.00in /  0mm 831.0 W/m2
14:57 91.8 °F /  33.2 °C 15.4 °F /  -9.2 °C 29.72in /  1006.3hPa SW 4.9mph /  7.9km/h 6.0mph /  9.7km/h 6% 0.00in /  0mm 819.0 W/m2
15:02 91.0 °F /  32.8 °C 14.9 °F /  -9.5 °C 29.72in /  1006.3hPa Calm   3.0mph /  4.8km/h 6% 0.00in /  0mm 807.0 W/m2
15:07 91.6 °F /  33.1 °C 15.3 °F /  -9.3 °C 29.72in /  1006.3hPa North 8.1mph /  13km/h 8.1mph /  13km/h 6% 0.00in /  0mm 791.0 W/m2
15:12 92.1 °F /  33.4 °C 15.6 °F /  -9.1 °C 29.72in /  1006.3hPa NNW 2.9mph /  4.7km/h 8.0mph /  12.9km/h 6% 0.00in /  0mm 775.0 W/m2
15:17 92.1 °F /  33.4 °C 15.6 °F /  -9.1 °C 29.71in /  1006hPa WSW 2.9mph /  4.7km/h 3.0mph /  4.8km/h 6% 0.00in /  0mm 763.0 W/m2
15:22 91.8 °F /  33.2 °C 15.4 °F /  -9.2 °C 29.71in /  1006hPa South 2.9mph /  4.7km/h 6.0mph /  9.7km/h 6% 0.00in /  0mm 744.0 W/m2
15:27 91.4 °F /  33 °C 15.1 °F /  -9.4 °C 29.70in /  1005.6hPa SW 0.9mph /  1.4km/h 4.0mph /  6.4km/h 6% 0.00in /  0mm 731.0 W/m2
15:33 90.9 °F /  32.7 °C 14.7 °F /  -9.6 °C 29.70in /  1005.6hPa West 4.9mph /  7.9km/h 8.0mph /  12.9km/h 6% 0.00in /  0mm 715.0 W/m2
15:38 90.7 °F /  32.6 °C 14.7 °F /  -9.6 °C 29.70in /  1005.6hPa SW 2.0mph /  3.2km/h 4.0mph /  6.4km/h 6% 0.00in /  0mm 700.0 W/m2
15:43 90.7 °F /  32.6 °C 14.7 °F /  -9.6 °C 29.70in /  1005.6hPa NNW 0.9mph /  1.4km/h 3.0mph /  4.8km/h 6% 0.00in /  0mm 686.0 W/m2
15:48 91.0 °F /  32.8 °C 14.9 °F /  -9.5 °C 29.70in /  1005.6hPa Calm   3.0mph /  4.8km/h 6% 0.00in /  0mm 666.0 W/m2
15:53 91.8 °F /  33.2 °C 15.4 °F /  -9.2 °C 29.70in /  1005.6hPa Calm   5.0mph /  8km/h 6% 0.00in /  0mm 652.0 W/m2
15:58 91.9 °F /  33.3 °C 11.5 °F /  -11.4 °C 29.70in /  1005.6hPa WNW 2.0mph /  3.2km/h 9.0mph /  14.5km/h 5% 0.00in /  0mm 635.0 W/m2
16:03 91.9 °F /  33.3 °C 11.5 °F /  -11.4 °C 29.70in /  1005.6hPa NE 2.9mph /  4.7km/h 8.0mph /  12.9km/h 5% 0.00in /  0mm 612.0 W/m2
16:08 91.8 °F /  33.2 °C 15.4 °F /  -9.2 °C 29.69in /  1005.3hPa Calm   5.0mph /  8km/h 6% 0.00in /  0mm 598.0 W/m2
16:13 91.9 °F /  33.3 °C 15.6 °F /  -9.1 °C 29.69in /  1005.3hPa NW 0.9mph /  1.4km/h 5.0mph /  8km/h 6% 0.00in /  0mm 582.0 W/m2
16:19 92.1 °F /  33.4 °C 11.5 °F /  -11.4 °C 29.69in /  1005.3hPa SSW 0.9mph /  1.4km/h 9.0mph /  14.5km/h 5% 0.00in /  0mm 563.0 W/m2
16:25 91.9 °F /  33.3 °C 15.6 °F /  -9.1 °C 29.69in /  1005.3hPa SSW 4.0mph /  6.4km/h 4.0mph /  6.4km/h 6% 0.00in /  0mm 541.0 W/m2
16:30 92.3 °F /  33.5 °C 11.7 °F /  -11.3 °C 29.69in /  1005.3hPa NNE 2.9mph /  4.7km/h 4.0mph /  6.4km/h 5% 0.00in /  0mm 522.0 W/m2
16:35 92.1 °F /  33.4 °C 11.5 °F /  -11.4 °C 29.69in /  1005.3hPa Calm   8.0mph /  12.9km/h 5% 0.00in /  0mm 503.0 W/m2
16:40 92.3 °F /  33.5 °C 15.8 °F /  -9 °C 29.69in /  1005.3hPa SSW 4.0mph /  6.4km/h 5.0mph /  8km/h 6% 0.00in /  0mm 476.0 W/m2
16:45 92.5 °F /  33.6 °C 16.0 °F /  -8.9 °C 29.69in /  1005.3hPa South 2.9mph /  4.7km/h 4.0mph /  6.4km/h 6% 0.00in /  0mm 457.0 W/m2
16:50 92.1 °F /  33.4 °C 19.2 °F /  -7.1 °C 29.69in /  1005.3hPa SW 2.9mph /  4.7km/h 5.0mph /  8km/h 7% 0.00in /  0mm 441.0 W/m2
16:55 91.9 °F /  33.3 °C 19.0 °F /  -7.2 °C 29.69in /  1005.3hPa ESE 2.0mph /  3.2km/h 11.0mph /  17.7km/h 7% 0.00in /  0mm 418.0 W/m2
17:00 91.6 °F /  33.1 °C 18.9 °F /  -7.3 °C 29.69in /  1005.3hPa SE 2.0mph /  3.2km/h 3.0mph /  4.8km/h 7% 0.00in /  0mm 404.0 W/m2
17:05 91.8 °F /  33.2 °C 19.0 °F /  -7.2 °C 29.69in /  1005.3hPa SSE 6.9mph /  11.1km/h 7.0mph /  11.3km/h 7% 0.00in /  0mm 385.0 W/m2
17:10 91.6 °F /  33.1 °C 18.9 °F /  -7.3 °C 29.69in /  1005.3hPa SE 4.9mph /  7.9km/h 11.0mph /  17.7km/h 7% 0.00in /  0mm 364.0 W/m2
17:15 90.9 °F /  32.7 °C 18.3 °F /  -7.6 °C 29.69in /  1005.3hPa ESE 4.0mph /  6.4km/h 11.0mph /  17.7km/h 7% 0.00in /  0mm 343.0 W/m2
17:21 90.0 °F /  32.2 °C 17.6 °F /  -8 °C 29.69in /  1005.3hPa SSE 0.9mph /  1.4km/h 8.0mph /  12.9km/h 7% 0.00in /  0mm 323.0 W/m2
17:26 89.4 °F /  31.9 °C 17.2 °F /  -8.2 °C 29.69in /  1005.3hPa SSE 0.9mph /  1.4km/h 13.0mph /  20.9km/h 7% 0.00in /  0mm 301.0 W/m2
17:31 89.1 °F /  31.7 °C 17.1 °F /  -8.3 °C 29.69in /  1005.3hPa SSW 4.0mph /  6.4km/h 11.0mph /  17.7km/h 7% 0.00in /  0mm 281.0 W/m2
17:36 89.1 °F /  31.7 °C 20.1 °F /  -6.6 °C 29.69in /  1005.3hPa SSW 2.0mph /  3.2km/h 10.0mph /  16.1km/h 8% 0.00in /  0mm 262.0 W/m2
17:41 88.9 °F /  31.6 °C 19.9 °F /  -6.7 °C 29.70in /  1005.6hPa SSE 0.9mph /  1.4km/h 13.0mph /  20.9km/h 8% 0.00in /  0mm 246.0 W/m2
17:46 88.2 °F /  31.2 °C 19.4 °F /  -7 °C 29.70in /  1005.6hPa SW 4.0mph /  6.4km/h 8.0mph /  12.9km/h 8% 0.00in /  0mm 227.0 W/m2
17:51 87.6 °F /  30.9 °C 19.0 °F /  -7.2 °C 29.70in /  1005.6hPa South 2.9mph /  4.7km/h 11.0mph /  17.7km/h 8% 0.00in /  0mm 207.0 W/m2
17:56 87.3 °F /  30.7 °C 18.9 °F /  -7.3 °C 29.70in /  1005.6hPa SSW 6.9mph /  11.1km/h 11.0mph /  17.7km/h 8% 0.00in /  0mm 183.0 W/m2
18:01 86.7 °F /  30.4 °C 18.3 °F /  -7.6 °C 29.70in /  1005.6hPa SW 4.9mph /  7.9km/h 10.0mph /  16.1km/h 8% 0.00in /  0mm 165.0 W/m2
18:06 86.5 °F /  30.3 °C 18.3 °F /  -7.6 °C 29.70in /  1005.6hPa SSW 2.9mph /  4.7km/h 10.0mph /  16.1km/h 8% 0.00in /  0mm 142.0 W/m2
18:12 86.5 °F /  30.3 °C 18.3 °F /  -7.6 °C 29.71in /  1006hPa Calm   9.0mph /  14.5km/h 8% 0.00in /  0mm 116.0 W/m2
18:17 86.2 °F /  30.1 °C 18.0 °F /  -7.8 °C 29.71in /  1006hPa SSW 2.0mph /  3.2km/h 10.0mph /  16.1km/h 8% 0.00in /  0mm 93.0 W/m2
18:22 85.8 °F /  29.9 °C 20.5 °F /  -6.4 °C 29.71in /  1006hPa SE 8.9mph /  14.3km/h 9.0mph /  14.5km/h 9% 0.00in /  0mm 72.0 W/m2
18:29 85.3 °F /  29.6 °C 20.1 °F /  -6.6 °C 29.72in /  1006.3hPa Calm   5.0mph /  8km/h 9% 0.00in /  0mm 46.0 W/m2
18:35 84.7 °F /  29.3 °C 19.6 °F /  -6.9 °C 29.72in /  1006.3hPa South 2.9mph /  4.7km/h 7.0mph /  11.3km/h 9% 0.00in /  0mm 33.0 W/m2
18:40 83.7 °F /  28.7 °C 18.9 °F /  -7.3 °C 29.72in /  1006.3hPa SSE 2.9mph /  4.7km/h 5.0mph /  8km/h 9% 0.00in /  0mm 16.0 W/m2
18:41 83.7 °F /  28.7 °C 18.9 °F /  -7.3 °C 29.72in /  1006.3hPa SSE 0.9mph /  1.4km/h 7.0mph /  11.3km/h 9% 0.00in /  0mm 14.0 W/m2
18:46 82.8 °F /  28.2 °C 18.1 °F /  -7.7 °C 29.72in /  1006.3hPa South 0.9mph /  1.4km/h 6.0mph /  9.7km/h 9% 0.00in /  0mm 9.0 W/m2
18:51 82.0 °F /  27.8 °C 20.1 °F /  -6.6 °C 29.72in /  1006.3hPa SSE 2.0mph /  3.2km/h 6.0mph /  9.7km/h 10% 0.00in /  0mm 7.0 W/m2
18:56 81.3 °F /  27.4 °C 19.6 °F /  -6.9 °C 29.73in /  1006.7hPa SSE 2.0mph /  3.2km/h 3.0mph /  4.8km/h 10% 0.00in /  0mm 0.0 W/m2
19:01 81.0 °F /  27.2 °C 19.2 °F /  -7.1 °C 29.73in /  1006.7hPa Calm   3.0mph /  4.8km/h 10% 0.00in /  0mm 0.0 W/m2
19:06 80.4 °F /  26.9 °C 18.9 °F /  -7.3 °C 29.73in /  1006.7hPa SSE 4.9mph /  7.9km/h 8.0mph /  12.9km/h 10% 0.00in /  0mm 0.0 W/m2
19:11 79.7 °F /  26.5 °C 18.3 °F /  -7.6 °C 29.73in /  1006.7hPa SE 4.0mph /  6.4km/h 8.0mph /  12.9km/h 10% 0.00in /  0mm 0.0 W/m2
19:16 79.2 °F /  26.2 °C 20.1 °F /  -6.6 °C 29.74in /  1007hPa Calm   6.0mph /  9.7km/h 11% 0.00in /  0mm 0.0 W/m2
19:21 78.6 °F /  25.9 °C 19.8 °F /  -6.8 °C 29.74in /  1007hPa SSE 0.9mph /  1.4km/h 11.0mph /  17.7km/h 11% 0.00in /  0mm 0.0 W/m2
19:27 78.3 °F /  25.7 °C 19.4 °F /  -7 °C 29.74in /  1007hPa SSE 0.9mph /  1.4km/h 5.0mph /  8km/h 11% 0.00in /  0mm 0.0 W/m2
19:32 78.1 °F /  25.6 °C 19.2 °F /  -7.1 °C 29.75in /  1007.3hPa SSE 4.9mph /  7.9km/h 7.0mph /  11.3km/h 11% 0.00in /  0mm 0.0 W/m2
19:37 77.5 °F /  25.3 °C 18.9 °F /  -7.3 °C 29.75in /  1007.3hPa Calm   6.0mph /  9.7km/h 11% 0.00in /  0mm 0.0 W/m2
19:42 77.4 °F /  25.2 °C 18.7 °F /  -7.4 °C 29.75in /  1007.3hPa Calm   6.0mph /  9.7km/h 11% 0.00in /  0mm 0.0 W/m2
19:48 77.0 °F /  25 °C 18.5 °F /  -7.5 °C 29.75in /  1007.3hPa South 0.9mph /  1.4km/h 3.0mph /  4.8km/h 11% 0.00in /  0mm 0.0 W/m2
19:53 76.6 °F /  24.8 °C 20.3 °F /  -6.5 °C 29.76in /  1007.7hPa Calm     12% 0.00in /  0mm 0.0 W/m2
19:58 76.5 °F /  24.7 °C 20.1 °F /  -6.6 °C 29.76in /  1007.7hPa Calm     12% 0.00in /  0mm 0.0 W/m2
20:03 76.1 °F /  24.5 °C 19.8 °F /  -6.8 °C 29.76in /  1007.7hPa Calm     12% 0.00in /  0mm 0.0 W/m2
20:08 75.7 °F /  24.3 °C 19.6 °F /  -6.9 °C 29.77in /  1008hPa Calm     12% 0.00in /  0mm 0.0 W/m2
20:13 75.6 °F /  24.2 °C 21.2 °F /  -6 °C 29.77in /  1008hPa Calm     13% 0.00in /  0mm 0.0 W/m2
20:18 75.0 °F /  23.9 °C 20.8 °F /  -6.2 °C 29.77in /  1008hPa Calm     13% 0.00in /  0mm 0.0 W/m2
20:24 74.7 °F /  23.7 °C 20.5 °F /  -6.4 °C 29.77in /  1008hPa Calm     13% 0.00in /  0mm 0.0 W/m2
20:29 74.1 °F /  23.4 °C 20.1 °F /  -6.6 °C 29.77in /  1008hPa Calm     13% 0.00in /  0mm 0.0 W/m2
20:34 73.8 °F /  23.2 °C 19.8 °F /  -6.8 °C 29.77in /  1008hPa Calm     13% 0.00in /  0mm 0.0 W/m2
20:39 73.2 °F /  22.9 °C 21.2 °F /  -6 °C 29.77in /  1008hPa Calm     14% 0.00in /  0mm 0.0 W/m2
20:44 72.9 °F /  22.7 °C 20.8 °F /  -6.2 °C 29.78in /  1008.4hPa Calm     14% 0.00in /  0mm 0.0 W/m2
20:49 72.3 °F /  22.4 °C 20.5 °F /  -6.4 °C 29.78in /  1008.4hPa Calm     14% 0.00in /  0mm 0.0 W/m2
20:54 72.0 °F /  22.2 °C 20.1 °F /  -6.6 °C 29.78in /  1008.4hPa Calm     14% 0.00in /  0mm 0.0 W/m2
20:59 71.8 °F /  22.1 °C 19.9 °F /  -6.7 °C 29.78in /  1008.4hPa Calm     14% 0.00in /  0mm 0.0 W/m2
21:04 71.4 °F /  21.9 °C 19.8 °F /  -6.8 °C 29.78in /  1008.4hPa Calm     14% 0.00in /  0mm 0.0 W/m2
21:10 71.4 °F /  21.9 °C 19.8 °F /  -6.8 °C 29.78in /  1008.4hPa Calm   4.0mph /  6.4km/h 14% 0.00in /  0mm 0.0 W/m2
21:16 71.4 °F /  21.9 °C 19.8 °F /  -6.8 °C 29.78in /  1008.4hPa Calm   2.0mph /  3.2km/h 14% 0.00in /  0mm 0.0 W/m2
21:22 71.6 °F /  22 °C 19.9 °F /  -6.7 °C 29.78in /  1008.4hPa Calm   2.0mph /  3.2km/h 14% 0.00in /  0mm 0.0 W/m2
21:27 71.8 °F /  22.1 °C 19.9 °F /  -6.7 °C 29.79in /  1008.7hPa Calm   2.0mph /  3.2km/h 14% 0.00in /  0mm 0.0 W/m2
21:32 71.8 °F /  22.1 °C 19.9 °F /  -6.7 °C 29.79in /  1008.7hPa Calm   3.0mph /  4.8km/h 14% 0.00in /  0mm 0.0 W/m2
21:37 71.6 °F /  22 °C 19.9 °F /  -6.7 °C 29.79in /  1008.7hPa Calm     14% 0.00in /  0mm 0.0 W/m2
21:42 71.2 °F /  21.8 °C 19.6 °F /  -6.9 °C 29.79in /  1008.7hPa Calm     14% 0.00in /  0mm 0.0 W/m2
21:47 71.1 °F /  21.7 °C 21.0 °F /  -6.1 °C 29.79in /  1008.7hPa Calm     15% 0.00in /  0mm 0.0 W/m2
21:52 70.7 °F /  21.5 °C 20.8 °F /  -6.2 °C 29.79in /  1008.7hPa Calm   2.0mph /  3.2km/h 15% 0.00in /  0mm 0.0 W/m2
21:58 70.5 °F /  21.4 °C 20.7 °F /  -6.3 °C 29.79in /  1008.7hPa Calm     15% 0.00in /  0mm 0.0 W/m2
22:02 70.2 °F /  21.2 °C 20.3 °F /  -6.5 °C 29.79in /  1008.7hPa Calm     15% 0.00in /  0mm 0.0 W/m2
22:08 70.0 °F /  21.1 °C 20.1 °F /  -6.6 °C 29.80in /  1009hPa Calm     15% 0.00in /  0mm 0.0 W/m2
22:13 69.6 °F /  20.9 °C 19.9 °F /  -6.7 °C 29.80in /  1009hPa Calm     15% 0.00in /  0mm 0.0 W/m2
22:18 69.4 °F /  20.8 °C 19.8 °F /  -6.8 °C 29.79in /  1008.7hPa Calm     15% 0.00in /  0mm 0.0 W/m2
22:24 69.3 °F /  20.7 °C 21.2 °F /  -6 °C 29.80in /  1009hPa Calm     16% 0.00in /  0mm 0.0 W/m2
22:29 69.1 °F /  20.6 °C 21.0 °F /  -6.1 °C 29.80in /  1009hPa Calm     16% 0.00in /  0mm 0.0 W/m2
22:34 68.7 °F /  20.4 °C 20.7 °F /  -6.3 °C 29.80in /  1009hPa Calm     16% 0.00in /  0mm 0.0 W/m2
22:39 68.4 °F /  20.2 °C 21.9 °F /  -5.6 °C 29.80in /  1009hPa Calm     17% 0.00in /  0mm 0.0 W/m2
22:44 68.0 °F /  20 °C 21.6 °F /  -5.8 °C 29.80in /  1009hPa Calm   1.0mph /  1.6km/h 17% 0.00in /  0mm 0.0 W/m2
22:49 67.8 °F /  19.9 °C 21.4 °F /  -5.9 °C 29.80in /  1009hPa ENE 2.0mph /  3.2km/h 2.0mph /  3.2km/h 17% 0.00in /  0mm 0.0 W/m2
22:56 67.5 °F /  19.7 °C 21.2 °F /  -6 °C 29.80in /  1009hPa Calm   2.0mph /  3.2km/h 17% 0.00in /  0mm 0.0 W/m2
23:01 67.3 °F /  19.6 °C 21.0 °F /  -6.1 °C 29.80in /  1009hPa Calm     17% 0.00in /  0mm 0.0 W/m2
23:06 67.1 °F /  19.5 °C 20.8 °F /  -6.2 °C 29.80in /  1009hPa Calm   1.0mph /  1.6km/h 17% 0.00in /  0mm 0.0 W/m2
23:11 66.7 °F /  19.3 °C 20.5 °F /  -6.4 °C 29.80in /  1009hPa Calm     17% 0.00in /  0mm 0.0 W/m2
23:16 66.6 °F /  19.2 °C 20.3 °F /  -6.5 °C 29.80in /  1009hPa Calm     17% 0.00in /  0mm 0.0 W/m2
23:21 66.4 °F /  19.1 °C 21.6 °F /  -5.8 °C 29.80in /  1009hPa Calm     18% 0.00in /  0mm 0.0 W/m2
23:27 66.0 °F /  18.9 °C 21.2 °F /  -6 °C 29.80in /  1009hPa Calm   1.0mph /  1.6km/h 18% 0.00in /  0mm 0.0 W/m2
23:32 65.7 °F /  18.7 °C 21.0 °F /  -6.1 °C 29.80in /  1009hPa Calm     18% 0.00in /  0mm 0.0 W/m2
23:38 65.5 °F /  18.6 °C 20.8 °F /  -6.2 °C 29.80in /  1009hPa Calm   2.0mph /  3.2km/h 18% 0.00in /  0mm 0.0 W/m2
23:43 65.5 °F /  18.6 °C 22.1 °F /  -5.5 °C 29.80in /  1009hPa Calm   1.0mph /  1.6km/h 19% 0.00in /  0mm 0.0 W/m2
23:48 65.3 °F /  18.5 °C 21.9 °F /  -5.6 °C 29.80in /  1009hPa Calm   1.0mph /  1.6km/h 19% 0.00in /  0mm 0.0 W/m2
23:53 65.1 °F /  18.4 °C 21.7 °F /  -5.7 °C 29.80in /  1009hPa Calm     19% 0.00in /  0mm 0.0 W/m2
23:58 64.9 °F /  18.3 °C 21.7 °F /  -5.7 °C 29.80in /  1009hPa Calm   1.0mph /  1.6km/h 19% 0.00in /  0mm 0.0 W/m2
Olympia, Windhoek, Namibia
Compliments of Weather Underground - 3.25 mb